Time;durP1;ratioP1;P1;durP2;ratioP2;P2;SDS_P1;SDS_P2;PMS_P1;PMS_P2;Temp;Humidity;BMP_temperature;BMP_pressure;BME280_temperature;BME280_humidity;BME280_pressure;Samples;Min_cycle;Max_cycle;Signal;HPM_P1;HPM_P2
2021/07/05 00:01:41;;;;;;;4.55;4.15;;;20.30;87.10;;;;;;5019116;28;20037;-69
2021/07/05 00:04:07;;;;;;;5.82;3.70;;;20.20;87.10;;;;;;5018806;28;20090;-69
2021/07/05 00:06:33;;;;;;;5.47;4.07;;;20.30;86.80;;;;;;5020456;28;20029;-69
2021/07/05 00:08:59;;;;;;;4.65;3.45;;;20.30;86.90;;;;;;5022764;28;20041;-69
2021/07/05 00:11:24;;;;;;;5.53;3.70;;;20.20;86.80;;;;;;5021065;28;20088;-69
2021/07/05 00:13:51;;;;;;;4.32;3.90;;;20.30;86.90;;;;;;5021596;28;20446;-69
2021/07/05 00:16:16;;;;;;;5.05;4.03;;;20.30;87.00;;;;;;5020718;28;20026;-69
2021/07/05 00:18:42;;;;;;;4.82;4.13;;;20.30;86.90;;;;;;5025530;28;20025;-69
2021/07/05 00:21:08;;;;;;;5.03;3.92;;;20.30;87.10;;;;;;5021806;28;20033;-70
2021/07/05 00:23:34;;;;;;;5.05;3.58;;;20.30;87.00;;;;;;5024526;28;20030;-69
2021/07/05 00:26:00;;;;;;;4.93;3.90;;;20.30;87.20;;;;;;5019454;28;20105;-69
2021/07/05 00:28:25;;;;;;;4.57;4.07;;;20.20;87.30;;;;;;5018310;28;20655;-69
2021/07/05 00:30:51;;;;;;;5.30;3.78;;;20.20;87.40;;;;;;5023760;28;20108;-69
2021/07/05 00:33:17;;;;;;;4.80;3.53;;;20.20;87.50;;;;;;5021140;28;20033;-70
2021/07/05 00:35:42;;;;;;;4.97;3.55;;;20.20;87.70;;;;;;5020872;28;20033;-69
2021/07/05 00:38:08;;;;;;;4.43;3.78;;;20.10;88.00;;;;;;5020590;28;20025;-69
2021/07/05 00:40:34;;;;;;;4.13;3.63;;;20.10;87.90;;;;;;5023832;28;20430;-69
2021/07/05 00:43:00;;;;;;;4.22;3.70;;;20.10;87.90;;;;;;5020539;28;20035;-69
2021/07/05 00:45:28;;;;;;;4.63;3.63;;;20.10;88.40;;;;;;5049768;23;20039;-69
2021/07/05 00:47:54;;;;;;;4.45;3.72;;;20.10;88.40;;;;;;5030208;28;20021;-69
2021/07/05 00:50:21;;;;;;;5.13;3.80;;;20.10;88.40;;;;;;5033543;28;20032;-69
2021/07/05 00:52:50;;;;;;;3.75;3.30;;;20.10;88.50;;;;;;5033346;28;20032;-69
2021/07/05 00:55:17;;;;;;;4.18;3.55;;;20.10;88.20;;;;;;5030808;28;20117;-69
2021/07/05 00:57:43;;;;;;;4.00;3.33;;;20.10;88.30;;;;;;5033353;28;20036;-70
2021/07/05 01:00:12;;;;;;;3.55;3.25;;;20.10;88.50;;;;;;5030399;28;20037;-72
2021/07/05 01:02:38;;;;;;;5.38;3.60;;;20.10;88.50;;;;;;5032540;28;20112;-71
2021/07/05 01:05:05;;;;;;;5.63;4.32;;;20.10;89.00;;;;;;5031907;28;20370;-71
2021/07/05 01:07:31;;;;;;;4.20;3.67;;;20.10;89.30;;;;;;5032401;28;20088;-71
2021/07/05 01:09:57;;;;;;;4.15;3.55;;;20.00;89.40;;;;;;5032818;28;20100;-71
2021/07/05 01:12:23;;;;;;;4.32;3.60;;;20.00;89.30;;;;;;5032797;28;20478;-71
2021/07/05 01:14:48;;;;;;;4.10;3.65;;;20.00;89.50;;;;;;5032902;28;20029;-71
2021/07/05 01:17:14;;;;;;;4.90;3.55;;;20.00;89.10;;;;;;5028838;28;20132;-71
2021/07/05 01:19:43;;;;;;;4.95;4.15;;;20.00;89.80;;;;;;5031640;28;20651;-71
2021/07/05 01:22:09;;;;;;;7.47;4.07;;;20.00;89.90;;;;;;5030859;28;20029;-72
2021/07/05 01:24:36;;;;;;;5.82;3.92;;;20.00;89.90;;;;;;5032456;28;20787;-71
2021/07/05 01:27:02;;;;;;;5.97;4.70;;;20.00;90.00;;;;;;5031675;28;20033;-72
2021/07/05 01:29:28;;;;;;;4.78;3.95;;;20.00;89.70;;;;;;5031191;28;20033;-71
2021/07/05 01:31:56;;;;;;;4.20;3.80;;;20.00;89.60;;;;;;5031132;28;20471;-71
2021/07/05 01:34:22;;;;;;;5.90;4.20;;;20.00;89.60;;;;;;5030490;28;20029;-71
2021/07/05 01:36:48;;;;;;;5.65;4.05;;;20.00;89.30;;;;;;5031363;28;20819;-71
2021/07/05 01:39:14;;;;;;;5.40;4.28;;;20.00;89.50;;;;;;5032198;28;20038;-71
2021/07/05 01:41:40;;;;;;;4.90;4.40;;;20.00;89.80;;;;;;5031852;28;20077;-71
2021/07/05 01:44:06;;;;;;;7.32;4.38;;;20.00;89.40;;;;;;4998950;28;20057;-72
2021/07/05 01:46:32;;;;;;;7.70;4.88;;;19.90;89.90;;;;;;5031563;28;20068;-71
2021/07/05 01:48:57;;;;;;;8.20;4.82;;;19.90;90.00;;;;;;5031587;28;20033;-71
2021/07/05 01:51:23;;;;;;;10.15;4.60;;;19.90;89.80;;;;;;5032588;28;20112;-72
2021/07/05 01:53:49;;;;;;;4.72;4.03;;;19.90;89.90;;;;;;5029867;28;20072;-71
2021/07/05 01:56:16;;;;;;;4.68;4.18;;;19.90;89.80;;;;;;5030268;28;20029;-72
2021/07/05 01:58:42;;;;;;;5.90;4.20;;;19.90;89.60;;;;;;5031433;28;20487;-72
2021/07/05 02:01:08;;;;;;;4.93;4.43;;;19.90;90.00;;;;;;5030944;28;20119;-71
2021/07/05 02:03:33;;;;;;;5.70;4.35;;;19.90;90.00;;;;;;5032492;28;20034;-71
2021/07/05 02:05:59;;;;;;;8.15;4.57;;;19.90;90.10;;;;;;5031646;28;20033;-71
2021/07/05 02:08:25;;;;;;;5.55;4.65;;;19.90;90.30;;;;;;5031119;28;20083;-71
2021/07/05 02:10:51;;;;;;;5.03;4.50;;;19.90;90.40;;;;;;5032689;28;20480;-71
2021/07/05 02:13:20;;;;;;;5.25;4.55;;;19.80;90.20;;;;;;5030977;28;20028;-72
2021/07/05 02:15:48;;;;;;;9.00;4.55;;;19.90;90.20;;;;;;5030227;28;20029;-71
2021/07/05 02:18:15;;;;;;;7.10;4.60;;;19.90;90.30;;;;;;5031917;28;20230;-72
2021/07/05 02:20:41;;;;;;;5.03;4.45;;;19.80;90.40;;;;;;5014603;28;20026;-72
2021/07/05 02:23:09;;;;;;;6.05;4.80;;;19.80;90.50;;;;;;5029761;28;20411;-71
2021/07/05 02:25:36;;;;;;;5.70;5.10;;;19.80;90.50;;;;;;5028552;28;20040;-71
2021/07/05 02:28:07;;;;;;;6.20;4.72;;;19.80;90.70;;;;;;5031282;28;20033;-71
2021/07/05 02:30:32;;;;;;;5.15;4.53;;;19.80;90.70;;;;;;5030634;28;20425;-71
2021/07/05 02:32:59;;;;;;;5.93;4.90;;;19.80;90.70;;;;;;5030388;28;20116;-72
2021/07/05 02:35:27;;;;;;;5.68;4.88;;;19.70;90.80;;;;;;5029242;28;20045;-71
2021/07/05 02:37:55;;;;;;;6.80;5.45;;;19.70;91.00;;;;;;5036355;28;20029;-72
2021/07/05 02:40:29;;;;;;;7.25;5.20;;;19.70;91.20;;;;;;5032688;28;20104;-72
2021/07/05 02:42:55;;;;;;;5.50;4.90;;;19.70;91.20;;;;;;5030282;28;20031;-72
2021/07/05 02:45:24;;;;;;;7.95;5.78;;;19.60;91.40;;;;;;5029762;28;20136;-71
2021/07/05 02:47:55;;;;;;;7.85;5.35;;;19.60;91.60;;;;;;5029039;28;20034;-72
2021/07/05 02:50:22;;;;;;;8.32;5.15;;;19.60;91.70;;;;;;5031187;28;20030;-70
2021/07/05 02:52:48;;;;;;;6.85;5.10;;;19.60;92.00;;;;;;5032206;28;20493;-72
2021/07/05 02:55:14;;;;;;;6.13;5.43;;;19.60;92.20;;;;;;5030946;28;20029;-72
2021/07/05 02:57:43;;;;;;;5.75;5.15;;;19.50;92.50;;;;;;5031018;28;20462;-71
2021/07/05 03:00:14;;;;;;;6.80;5.20;;;19.50;92.40;;;;;;5030420;28;20029;-71
2021/07/05 03:02:40;;;;;;;6.53;5.22;;;19.50;92.60;;;;;;5031156;28;20385;-72
2021/07/05 03:05:08;;;;;;;8.75;5.55;;;19.50;92.60;;;;;;5029425;28;20033;-72
2021/07/05 03:07:35;;;;;;;8.00;5.63;;;19.40;93.00;;;;;;5029763;28;20092;-71
2021/07/05 03:10:01;;;;;;;7.90;6.07;;;19.40;93.00;;;;;;5031774;28;20091;-72
2021/07/05 03:12:27;;;;;;;10.40;7.10;;;19.40;93.10;;;;;;5030022;28;20442;-72
2021/07/05 03:14:56;;;;;;;10.63;6.95;;;19.40;93.10;;;;;;5027644;28;20483;-72
2021/07/05 03:17:21;;;;;;;9.88;7.18;;;19.40;93.20;;;;;;5028779;28;20121;-71
2021/07/05 03:19:47;;;;;;;8.10;6.90;;;19.30;93.30;;;;;;5028972;28;20104;-72
2021/07/05 03:22:13;;;;;;;9.60;6.90;;;19.30;93.40;;;;;;5028923;28;20033;-72
2021/07/05 03:24:40;;;;;;;9.38;6.55;;;19.20;93.40;;;;;;5012951;28;20467;-72
2021/07/05 03:27:06;;;;;;;11.90;7.13;;;19.20;93.10;;;;;;5028826;28;20034;-72
2021/07/05 03:29:32;;;;;;;10.45;7.05;;;19.30;93.30;;;;;;5030761;28;20030;-72
2021/07/05 03:32:00;;;;;;;9.13;7.60;;;19.30;93.40;;;;;;5029946;28;20029;-72
2021/07/05 03:34:26;;;;;;;9.90;6.93;;;19.30;93.40;;;;;;5028667;28;20083;-72
2021/07/05 03:36:52;;;;;;;8.73;7.30;;;19.30;93.30;;;;;;5030490;28;20487;-71
2021/07/05 03:39:17;;;;;;;11.88;8.18;;;19.30;93.40;;;;;;5030058;28;20049;-72
2021/07/05 03:41:43;;;;;;;13.52;8.45;;;19.20;93.50;;;;;;5029202;28;20033;-72
2021/07/05 03:44:08;;;;;;;12.75;8.80;;;19.20;93.60;;;;;;5029781;28;20040;-72
2021/07/05 03:46:35;;;;;;;9.50;8.50;;;19.20;93.80;;;;;;5029569;28;20029;-72
2021/07/05 03:49:01;;;;;;;9.25;7.97;;;19.20;93.70;;;;;;5028215;28;20025;-72
2021/07/05 03:51:26;;;;;;;12.75;9.05;;;19.20;93.70;;;;;;5029363;28;20025;-72
2021/07/05 03:53:52;;;;;;;11.30;8.45;;;19.20;93.70;;;;;;5028867;28;20028;-72
2021/07/05 03:56:18;;;;;;;12.90;10.20;;;19.20;93.60;;;;;;5027620;28;20022;-72
2021/07/05 03:58:44;;;;;;;12.48;9.68;;;19.20;93.90;;;;;;5029549;28;20510;-71
2021/07/05 04:01:09;;;;;;;11.70;10.45;;;19.20;93.90;;;;;;5029299;28;20041;-72
2021/07/05 04:03:35;;;;;;;15.07;11.23;;;19.20;93.90;;;;;;5027244;28;20021;-71
2021/07/05 04:06:01;;;;;;;14.57;11.18;;;19.20;93.90;;;;;;5029003;28;20033;-72
2021/07/05 04:08:29;;;;;;;14.45;9.88;;;19.20;94.00;;;;;;5027652;28;20057;-72
2021/07/05 04:10:55;;;;;;;16.92;11.65;;;19.20;93.90;;;;;;5028362;28;20040;-72
2021/07/05 04:13:26;;;;;;;14.48;10.57;;;19.10;93.90;;;;;;5029943;28;20418;-72
2021/07/05 04:15:52;;;;;;;15.50;11.02;;;19.10;93.90;;;;;;5027743;28;20048;-72
2021/07/05 04:18:17;;;;;;;14.63;11.80;;;19.20;94.00;;;;;;5027331;28;20018;-72
2021/07/05 04:20:43;;;;;;;13.73;10.40;;;19.20;94.10;;;;;;5030363;28;20033;-72
2021/07/05 04:23:09;;;;;;;13.90;10.80;;;19.10;94.00;;;;;;5028547;28;20029;-73
2021/07/05 04:25:35;;;;;;;14.70;12.40;;;19.10;93.90;;;;;;5027332;28;20041;-72
2021/07/05 04:28:02;;;;;;;15.40;11.30;;;19.10;94.20;;;;;;5032788;28;20091;-72
2021/07/05 04:30:28;;;;;;;16.38;12.32;;;19.10;94.10;;;;;;5029091;28;20033;-72
2021/07/05 04:32:54;;;;;;;17.67;12.73;;;19.10;94.00;;;;;;5028630;28;20029;-72
2021/07/05 04:35:21;;;;;;;15.13;12.70;;;19.10;94.00;;;;;;5029622;28;20494;-72
2021/07/05 04:37:48;;;;;;;15.35;11.13;;;19.10;94.10;;;;;;5028606;28;20018;-72
2021/07/05 04:40:20;;;;;;;12.88;10.85;;;19.10;94.10;;;;;;5027564;28;20056;-72
2021/07/05 04:42:47;;;;;;;14.13;11.23;;;19.10;94.00;;;;;;5028764;28;20483;-72
2021/07/05 04:45:14;;;;;;;13.55;10.27;;;19.10;93.90;;;;;;5026397;28;20030;-72
2021/07/05 04:47:41;;;;;;;16.35;11.73;;;19.10;93.80;;;;;;5011352;28;20049;-72
2021/07/05 04:50:09;;;;;;;13.07;11.18;;;19.10;93.80;;;;;;5028853;28;20040;-72
2021/07/05 04:52:36;;;;;;;12.15;10.77;;;19.10;94.00;;;;;;5028701;28;20025;-72
2021/07/05 04:55:03;;;;;;;12.13;9.45;;;19.10;94.00;;;;;;5027439;28;20048;-72
2021/07/05 04:57:30;;;;;;;15.57;11.50;;;19.20;94.10;;;;;;5028489;28;20045;-72
2021/07/05 04:59:55;;;;;;;15.57;10.98;;;19.20;94.00;;;;;;5026922;28;20434;-72
2021/07/05 05:02:22;;;;;;;12.38;9.43;;;19.10;93.90;;;;;;5032023;28;20060;-72
2021/07/05 05:04:49;;;;;;;13.38;10.43;;;19.20;93.80;;;;;;5032854;28;20029;-72
2021/07/05 05:07:15;;;;;;;15.73;11.52;;;19.20;93.70;;;;;;5028587;28;20041;-72
2021/07/05 05:09:41;;;;;;;13.13;10.95;;;19.20;94.00;;;;;;5029199;28;20034;-72
2021/07/05 05:12:07;;;;;;;14.48;11.57;;;19.20;93.90;;;;;;5027145;28;20044;-73
2021/07/05 05:14:33;;;;;;;14.82;11.32;;;19.10;93.80;;;;;;5027360;28;20029;-71
2021/07/05 05:16:59;;;;;;;13.98;10.65;;;19.20;93.80;;;;;;5026914;28;20036;-70
2021/07/05 05:19:25;;;;;;;13.75;11.02;;;19.20;93.80;;;;;;5029015;28;20037;-71
2021/07/05 05:21:50;;;;;;;14.65;9.98;;;19.10;93.80;;;;;;5030564;28;20025;-71
2021/07/05 05:24:16;;;;;;;14.55;11.13;;;19.20;93.80;;;;;;5029515;28;20025;-71
2021/07/05 05:26:42;;;;;;;14.65;12.23;;;19.10;93.80;;;;;;5028873;28;20363;-71
2021/07/05 05:29:07;;;;;;;13.73;10.93;;;19.20;93.60;;;;;;5027488;28;20090;-72
2021/07/05 05:31:35;;;;;;;16.00;10.82;;;19.20;93.60;;;;;;5031695;28;20029;-72
2021/07/05 05:34:01;;;;;;;14.00;11.32;;;19.20;93.50;;;;;;5028040;28;20104;-72
2021/07/05 05:36:26;;;;;;;14.20;11.48;;;19.20;93.60;;;;;;5032474;28;20192;-72
2021/07/05 05:38:52;;;;;;;17.70;11.15;;;19.20;93.70;;;;;;5031293;28;20048;-74
2021/07/05 05:41:18;;;;;;;17.35;11.45;;;19.20;93.60;;;;;;5030329;28;20037;-71
2021/07/05 05:43:44;;;;;;;13.43;9.50;;;19.10;93.70;;;;;;5030708;28;20025;-71
2021/07/05 05:46:15;;;;;;;12.65;9.55;;;19.10;93.60;;;;;;5031882;28;20037;-71
2021/07/05 05:48:42;;;;;;;11.10;8.82;;;19.20;93.60;;;;;;5031285;28;20029;-71
2021/07/05 05:51:08;;;;;;;14.95;9.60;;;19.20;93.50;;;;;;5032213;28;20032;-72
2021/07/05 05:53:34;;;;;;;14.05;9.75;;;19.20;93.50;;;;;;5032345;28;20116;-71
2021/07/05 05:55:59;;;;;;;15.25;11.85;;;19.10;93.50;;;;;;5027392;28;20052;-71
2021/07/05 05:58:25;;;;;;;11.63;10.38;;;19.20;92.80;;;;;;5034627;28;20029;-73
2021/07/05 06:00:51;;;;;;;11.40;8.48;;;19.20;93.10;;;;;;5035372;28;20022;-74
2021/07/05 06:03:16;;;;;;;10.68;8.55;;;19.20;93.20;;;;;;5029491;28;20032;-74
2021/07/05 06:05:42;;;;;;;15.25;10.63;;;19.20;93.10;;;;;;5026820;28;20417;-74
2021/07/05 06:08:07;;;;;;;14.63;9.68;;;19.20;93.10;;;;;;5029715;28;20040;-74
2021/07/05 06:10:33;;;;;;;11.20;8.93;;;19.10;93.20;;;;;;5031017;28;20036;-74
2021/07/05 06:12:59;;;;;;;9.93;7.60;;;19.20;93.20;;;;;;5029735;28;20036;-72
2021/07/05 06:15:25;;;;;;;10.38;7.38;;;19.20;93.10;;;;;;5029002;28;20093;-72
2021/07/05 06:17:52;;;;;;;13.07;9.88;;;19.20;93.10;;;;;;5026447;28;20274;-70
2021/07/05 06:20:18;;;;;;;14.77;10.57;;;19.10;93.30;;;;;;5028708;28;20433;-72
2021/07/05 06:22:51;;;;;;;12.57;8.85;;;19.10;93.30;;;;;;5011531;28;20052;-71
2021/07/05 06:25:17;;;;;;;12.68;10.73;;;19.10;93.30;;;;;;5028249;28;20635;-71
2021/07/05 06:27:43;;;;;;;12.93;10.65;;;19.20;93.20;;;;;;5026951;28;20112;-71
2021/07/05 06:30:10;;;;;;;13.27;9.50;;;19.10;93.20;;;;;;5031514;28;20037;-74
2021/07/05 06:32:35;;;;;;;13.65;10.23;;;19.00;93.30;;;;;;5015708;28;20437;-72
2021/07/05 06:35:01;;;;;;;11.50;8.55;;;19.10;93.30;;;;;;5025185;28;20034;-74
2021/07/05 06:37:27;;;;;;;13.88;10.15;;;19.10;93.20;;;;;;5014021;28;20018;-75
2021/07/05 06:39:52;;;;;;;13.57;9.63;;;19.10;93.20;;;;;;5012078;28;20017;-77
2021/07/05 06:42:18;;;;;;;12.07;9.65;;;19.10;93.30;;;;;;5018710;28;20025;-76
2021/07/05 06:44:44;;;;;;;14.00;9.93;;;19.20;93.30;;;;;;5031273;28;20631;-75
2021/07/05 06:47:10;;;;;;;12.98;10.02;;;19.10;93.30;;;;;;5032238;28;20037;-76
2021/07/05 06:49:35;;;;;;;17.13;11.73;;;19.20;93.20;;;;;;5032163;28;20022;-76
2021/07/05 06:52:01;;;;;;;13.70;11.18;;;19.10;92.90;;;;;;5031762;28;20126;-74
2021/07/05 06:54:27;;;;;;;11.10;9.82;;;19.20;92.60;;;;;;5029639;28;20108;-75
2021/07/05 06:56:53;;;;;;;14.90;9.75;;;19.20;92.50;;;;;;5026117;28;20026;-75
2021/07/05 06:59:18;;;;;;;13.90;8.73;;;19.20;92.60;;;;;;5023246;28;20144;-74
2021/07/05 07:01:45;;;;;;;10.35;8.90;;;19.10;92.50;;;;;;5030783;28;20031;-76
2021/07/05 07:04:11;;;;;;;11.27;8.90;;;19.10;92.60;;;;;;5032512;28;20112;-79
2021/07/05 07:06:37;;;;;;;11.05;9.20;;;19.10;92.70;;;;;;5039173;28;20136;-78
2021/07/05 07:09:04;;;;;;;12.75;8.57;;;19.10;92.50;;;;;;5015091;28;20025;-77
2021/07/05 07:11:30;;;;;;;12.75;9.05;;;19.10;92.50;;;;;;5034220;28;20044;-78
2021/07/05 07:13:56;;;;;;;11.55;9.65;;;19.20;92.60;;;;;;5039330;28;20017;-78
2021/07/05 07:16:25;;;;;;;14.73;11.63;;;19.30;92.30;;;;;;5037230;28;20045;-77
2021/07/05 07:21:47;;;;;;;9.80;8.05;;;19.40;92.10;;;;;;5024764;28;20037;-79
2021/07/05 07:24:13;;;;;;;8.70;7.60;;;19.40;92.00;;;;;;5040259;28;20040;-78
2021/07/05 07:26:39;;;;;;;9.70;8.00;;;19.40;92.10;;;;;;5043468;28;20026;-73
2021/07/05 07:29:05;;;;;;;11.35;8.57;;;19.50;92.10;;;;;;5039048;28;20134;-77
2021/07/05 07:31:31;;;;;;;9.00;7.75;;;19.50;91.90;;;;;;5039285;28;20075;-77
2021/07/05 07:33:56;;;;;;;10.25;9.15;;;19.50;91.70;;;;;;5032045;28;20094;-77
2021/07/05 07:36:23;;;;;;;12.45;9.25;;;19.50;91.60;;;;;;5029487;28;20033;-77
2021/07/05 07:38:54;;;;;;;9.68;7.97;;;19.50;91.40;;;;;;5029544;28;20103;-77
2021/07/05 07:41:31;;;;;;;;;;;19.60;91.50;;;;;;5032507;28;20026;-77
2021/07/05 07:44:17;;;;;;;12.68;9.00;;;19.60;91.50;;;;;;5017172;28;19909;-77
2021/07/05 07:46:43;;;;;;;12.75;9.93;;;19.70;91.60;;;;;;5027513;28;20461;-76
2021/07/05 07:49:08;;;;;;;10.30;8.93;;;19.70;91.00;;;;;;5031560;28;20027;-76
2021/07/05 07:51:34;;;;;;;9.70;8.60;;;19.70;90.90;;;;;;5031619;28;20036;-76
2021/07/05 07:54:00;;;;;;;12.90;9.85;;;19.80;91.10;;;;;;5030730;28;20025;-76
2021/07/05 07:56:29;;;;;;;12.98;9.50;;;19.90;91.00;;;;;;5029897;28;20751;-77
2021/07/05 07:58:55;;;;;;;12.80;10.48;;;19.90;90.90;;;;;;5031227;28;20061;-77
2021/07/05 08:01:20;;;;;;;12.52;10.48;;;20.00;90.90;;;;;;5008350;28;20518;-76
2021/07/05 08:03:46;;;;;;;12.55;9.60;;;20.10;90.20;;;;;;5030872;28;20489;-77
2021/07/05 08:06:12;;;;;;;9.80;8.80;;;20.10;90.20;;;;;;5026606;28;20048;-76
2021/07/05 08:08:38;;;;;;;9.05;8.05;;;20.10;90.10;;;;;;5028359;28;20120;-76
2021/07/05 08:11:04;;;;;;;10.45;8.70;;;20.20;90.00;;;;;;5029476;28;20120;-76
2021/07/05 08:13:29;;;;;;;13.70;8.93;;;20.20;89.70;;;;;;5029903;28;20449;-70
2021/07/05 08:15:55;;;;;;;11.60;8.85;;;20.20;89.70;;;;;;5029561;28;20448;-72
2021/07/05 08:18:21;;;;;;;11.07;8.57;;;20.20;89.30;;;;;;5025184;28;20025;-72
2021/07/05 08:20:47;;;;;;;8.77;7.38;;;20.20;90.00;;;;;;5027568;28;20449;-72
2021/07/05 08:23:13;;;;;;;10.70;8.60;;;20.10;89.80;;;;;;5026515;28;20037;-72
2021/07/05 08:25:39;;;;;;;9.80;8.63;;;20.10;89.60;;;;;;5028687;28;20071;-73
2021/07/05 08:28:05;;;;;;;8.43;7.55;;;20.20;89.60;;;;;;5025206;28;20030;-71
2021/07/05 08:30:31;;;;;;;8.27;7.40;;;20.10;89.80;;;;;;5028802;28;20120;-72
2021/07/05 08:32:57;;;;;;;10.75;8.02;;;20.20;89.80;;;;;;5028946;28;20380;-72
2021/07/05 08:35:24;;;;;;;10.45;7.90;;;20.20;88.90;;;;;;5028883;28;20048;-72
2021/07/05 08:37:53;;;;;;;10.02;7.55;;;20.20;89.00;;;;;;5029722;28;20582;-72
2021/07/05 08:40:19;;;;;;;8.23;7.38;;;20.20;88.90;;;;;;5029342;28;20018;-71
2021/07/05 08:42:46;;;;;;;9.80;7.40;;;20.10;88.60;;;;;;5025779;28;20465;-72
2021/07/05 08:45:13;;;;;;;8.63;7.30;;;20.20;88.40;;;;;;5019513;28;20033;-72
2021/07/05 08:47:42;;;;;;;10.23;7.97;;;20.20;88.70;;;;;;5027681;28;20025;-71
2021/07/05 08:50:10;;;;;;;11.65;8.30;;;20.20;88.70;;;;;;5031243;28;20075;-71
2021/07/05 08:52:44;;;;;;;11.77;9.88;;;20.20;88.00;;;;;;5028614;28;20029;-72
2021/07/05 08:55:13;;;;;;;10.65;9.55;;;20.30;87.80;;;;;;5028301;28;20034;-72
2021/07/05 08:57:43;;;;;;;10.65;9.15;;;20.30;87.90;;;;;;5027934;28;20029;-71
2021/07/05 09:00:13;;;;;;;8.90;8.02;;;20.20;88.40;;;;;;5012409;28;20033;-72
2021/07/05 09:02:39;;;;;;;13.60;9.30;;;20.30;88.20;;;;;;5029476;28;20032;-72
2021/07/05 09:05:06;;;;;;;10.73;9.55;;;20.30;87.70;;;;;;5033068;28;20033;-72
2021/07/05 09:07:32;;;;;;;10.15;8.70;;;20.30;87.40;;;;;;5029749;28;20037;-72
2021/07/05 09:10:04;;;;;;;10.05;9.05;;;20.30;87.70;;;;;;5032488;28;20033;-72
2021/07/05 09:12:30;;;;;;;10.60;9.48;;;20.30;88.20;;;;;;5033354;28;20063;-72
2021/07/05 09:15:13;;;;;;;11.77;8.27;;;20.40;87.90;;;;;;5009559;28;20853;-73
2021/07/05 09:17:42;;;;;;;9.07;7.22;;;20.50;87.80;;;;;;5010035;28;20103;-71
2021/07/05 09:20:13;;;;;;;9.65;8.20;;;20.70;87.50;;;;;;5033173;28;20053;-72
2021/07/05 09:23:12;;;;;;;10.25;8.75;;;20.80;83.90;;;;;;5031837;28;20084;-72
2021/07/05 09:25:47;;;;;;;8.10;7.22;;;20.80;83.70;;;;;;5026170;28;20096;-72
2021/07/05 09:28:15;;;;;;;8.93;7.72;;;20.80;84.40;;;;;;5030873;28;20128;-72
2021/07/05 09:30:42;;;;;;;9.43;7.60;;;20.90;84.20;;;;;;5032371;28;20402;-72
2021/07/05 09:33:15;;;;;;;8.30;7.00;;;21.00;84.40;;;;;;5030292;28;20049;-77
2021/07/05 09:35:42;;;;;;;12.32;7.55;;;21.00;84.00;;;;;;5031978;28;20040;-74
2021/07/05 09:38:08;;;;;;;10.50;7.47;;;21.00;83.80;;;;;;5031761;28;20309;-73
2021/07/05 09:40:34;;;;;;;7.80;6.72;;;21.00;84.30;;;;;;5024737;28;20298;-74
2021/07/05 09:42:59;;;;;;;8.25;6.53;;;21.10;84.00;;;;;;5023076;28;20562;-74
2021/07/05 09:45:36;;;;;;;7.15;5.70;;;21.20;84.10;;;;;;5029309;28;20041;-74
2021/07/05 09:48:17;;;;;;;10.07;6.38;;;21.30;83.40;;;;;;5030732;28;20744;-74
2021/07/05 09:50:48;;;;;;;8.40;6.60;;;21.30;83.30;;;;;;5037937;28;20033;-72
2021/07/05 09:53:26;;;;;;;;;;;21.40;83.40;;;;;;5034489;28;20048;-74
2021/07/05 09:55:53;;;;;;;8.38;6.18;;;21.50;82.70;;;;;;5028935;28;19945;-74
2021/07/05 09:58:31;;;;;;;9.82;7.25;;;21.60;82.00;;;;;;5030854;28;20459;-74
2021/07/05 10:00:57;;;;;;;8.75;7.45;;;21.50;81.60;;;;;;5029421;28;20491;-74
2021/07/05 10:03:39;;;;;;;12.48;8.20;;;21.40;81.50;;;;;;5030577;28;20041;-73
2021/07/05 10:06:21;;;;;;;8.77;7.90;;;21.30;81.90;;;;;;5031828;28;20040;-71
2021/07/05 10:08:48;;;;;;;10.32;6.55;;;21.30;82.30;;;;;;5029177;28;20048;-73
2021/07/05 10:11:15;;;;;;;9.10;7.35;;;21.30;82.60;;;;;;5011177;28;20098;-74
2021/07/05 10:13:41;;;;;;;7.60;6.88;;;21.30;82.20;;;;;;5028302;28;20799;-73
2021/07/05 10:16:13;;;;;;;9.52;7.03;;;21.40;81.90;;;;;;5030336;28;20099;-74
2021/07/05 10:18:42;;;;;;;8.05;5.28;;;21.50;81.00;;;;;;5030989;28;20536;-73
2021/07/05 10:21:08;;;;;;;7.75;6.93;;;21.50;81.90;;;;;;5029119;28;20029;-73
2021/07/05 10:23:35;;;;;;;6.47;5.82;;;21.50;81.60;;;;;;5028982;28;20040;-73
2021/07/05 10:26:01;;;;;;;7.72;7.03;;;21.50;81.60;;;;;;5029598;28;20407;-73
2021/07/05 10:28:27;;;;;;;6.70;5.88;;;21.50;81.60;;;;;;5028332;28;20021;-73
2021/07/05 10:30:53;;;;;;;7.95;5.53;;;21.50;81.90;;;;;;5027125;28;20040;-73
2021/07/05 10:33:20;;;;;;;6.70;6.00;;;21.50;82.90;;;;;;5033109;28;20033;-74
2021/07/05 10:35:49;;;;;;;7.93;7.10;;;21.70;81.60;;;;;;5031027;28;20078;-74
2021/07/05 10:38:20;;;;;;;10.40;6.78;;;21.80;81.40;;;;;;5031009;28;20025;-76
2021/07/05 10:40:48;;;;;;;12.60;7.75;;;21.80;81.10;;;;;;5031608;28;20043;-75
2021/07/05 10:43:17;;;;;;;6.88;5.63;;;21.80;81.00;;;;;;5030481;28;20104;-72
2021/07/05 10:45:49;;;;;;;7.45;6.28;;;21.90;81.70;;;;;;5028333;28;20044;-76
2021/07/05 10:48:37;;;;;;;9.27;6.63;;;22.00;80.50;;;;;;5031879;28;20111;-73
2021/07/05 10:51:04;;;;;;;6.95;5.18;;;22.00;80.60;;;;;;5026961;28;20104;-74
2021/07/05 10:53:33;;;;;;;7.10;5.38;;;22.00;80.70;;;;;;5032291;28;20029;-77
2021/07/05 10:56:01;;;;;;;8.70;5.53;;;22.20;79.70;;;;;;5016094;28;20040;-75
2021/07/05 10:58:29;;;;;;;7.00;5.40;;;22.20;78.80;;;;;;5033480;28;20030;-76
2021/07/05 11:01:06;;;;;;;6.45;5.22;;;22.10;78.80;;;;;;5018733;28;20028;-78
2021/07/05 11:03:38;;;;;;;7.43;5.88;;;22.20;78.30;;;;;;5027910;28;20035;-75
2021/07/05 11:06:11;;;;;;;5.03;4.45;;;22.20;77.00;;;;;;5027937;28;20075;-77
2021/07/05 11:08:44;;;;;;;8.25;4.30;;;22.20;78.20;;;;;;5029121;28;20029;-77
2021/07/05 11:11:10;;;;;;;4.68;3.90;;;22.10;78.40;;;;;;5031722;28;20029;-77
2021/07/05 11:13:37;;;;;;;4.57;3.75;;;22.20;76.50;;;;;;5039036;28;20511;-77
2021/07/05 11:16:04;;;;;;;4.63;3.90;;;22.20;77.20;;;;;;5032458;28;20064;-74
2021/07/05 11:18:39;;;;;;;4.30;3.75;;;22.30;77.50;;;;;;5025347;28;20040;-74
2021/07/05 11:21:23;;;;;;;4.45;4.05;;;22.30;78.00;;;;;;5031590;28;20064;-77
2021/07/05 11:26:22;;;;;;;5.53;4.03;;;22.30;78.00;;;;;;5016216;28;20029;-79
2021/07/05 11:29:14;;;;;;;5.18;4.68;;;22.30;77.70;;;;;;5013043;28;20032;-80
2021/07/05 11:31:50;;;;;;;7.30;3.65;;;22.40;76.80;;;;;;5017822;28;20510;-80
2021/07/05 11:34:37;;;;;;;3.47;3.15;;;22.40;76.70;;;;;;5032583;28;20040;-75
2021/07/05 11:37:12;;;;;;;3.72;3.17;;;22.50;75.20;;;;;;5029783;28;20030;-77
2021/07/05 11:39:43;;;;;;;3.92;3.10;;;22.60;75.80;;;;;;5012220;28;20033;-78
2021/07/05 11:42:09;;;;;;;;;;;22.50;74.50;;;;;;5035391;28;20026;-78
2021/07/05 11:44:55;;;;;;;5.38;3.47;;;22.40;75.40;;;;;;5042961;28;20355;-79
2021/07/05 11:47:36;;;;;;;5.13;3.72;;;22.40;76.30;;;;;;5037459;28;20033;-78
2021/07/05 11:50:24;;;;;;;;;;;22.40;74.90;;;;;;5038428;28;20498;-79
2021/07/05 11:52:55;;;;;;;4.57;3.40;;;22.40;75.60;;;;;;5028559;28;19909;-79
2021/07/05 11:55:24;;;;;;;4.00;3.25;;;22.40;76.50;;;;;;5034707;28;20479;-78
2021/07/05 11:57:53;;;;;;;4.22;3.83;;;22.40;77.50;;;;;;5011656;28;20037;-77
2021/07/05 12:00:29;;;;;;;4.28;3.50;;;22.50;77.00;;;;;;5030524;28;20091;-76
2021/07/05 12:03:10;;;;;;;5.75;4.43;;;22.50;76.70;;;;;;5036142;28;20027;-75
2021/07/05 12:05:42;;;;;;;7.85;4.20;;;22.50;76.20;;;;;;5036461;28;20048;-77
2021/07/05 12:08:13;;;;;;;3.72;3.40;;;22.40;76.20;;;;;;5030595;28;20034;-76
2021/07/05 12:10:44;;;;;;;5.63;4.30;;;22.30;76.80;;;;;;5011740;28;20028;-77
2021/07/05 12:13:13;;;;;;;5.45;4.10;;;22.20;77.20;;;;;;5032000;28;20025;-77
2021/07/05 12:15:39;;;;;;;4.70;3.78;;;22.10;78.00;;;;;;5032437;28;20040;-78
2021/07/05 12:18:05;;;;;;;4.28;3.80;;;22.10;78.60;;;;;;5013458;28;20049;-77
2021/07/05 12:20:31;;;;;;;4.95;4.28;;;22.00;79.20;;;;;;5031190;28;20549;-79
2021/07/05 12:23:07;;;;;;;4.28;3.88;;;21.90;79.40;;;;;;5011077;28;20068;-76
2021/07/05 12:25:33;;;;;;;4.70;3.85;;;21.90;79.50;;;;;;5007935;28;20025;-77
2021/07/05 12:28:09;;;;;;;7.30;4.05;;;21.90;80.20;;;;;;5025814;28;20030;-77
2021/07/05 12:30:36;;;;;;;4.32;3.90;;;21.90;80.90;;;;;;5024521;28;20037;-76
2021/07/05 12:33:05;;;;;;;4.47;3.53;;;21.90;81.10;;;;;;5027840;28;20025;-76
2021/07/05 12:35:32;;;;;;;3.83;3.47;;;21.80;80.70;;;;;;5028853;28;20043;-76
2021/07/05 12:38:00;;;;;;;4.68;4.05;;;21.80;81.30;;;;;;5029285;28;20034;-77
2021/07/05 12:40:30;;;;;;;4.75;3.90;;;21.70;81.70;;;;;;5016217;28;20029;-76
2021/07/05 12:43:03;;;;;;;4.27;3.83;;;21.60;82.20;;;;;;5033810;28;20025;-76
2021/07/05 12:45:33;;;;;;;4.05;3.35;;;21.50;83.40;;;;;;5030186;28;20040;-76
2021/07/05 12:48:11;;;;;;;5.88;2.65;;;21.40;84.80;;;;;;5030116;28;20109;-77
2021/07/05 12:50:48;;;;;;;3.03;2.13;;;21.30;84.90;;;;;;5014900;28;20059;-77
2021/07/05 12:53:16;;;;;;;1.70;1.30;;;21.20;85.00;;;;;;5017318;28;20076;-77